createdAt,value
2023-01-15T00:00:14.009Z,100.00
2023-01-15T00:02:40.401Z,100.00
2023-01-15T00:05:06.765Z,100.00
2023-01-15T00:07:33.115Z,100.00
2023-01-15T00:09:59.466Z,100.00
2023-01-15T00:12:25.834Z,100.00
2023-01-15T00:14:52.244Z,100.00
2023-01-15T00:17:18.695Z,100.00
2023-01-15T00:19:45.078Z,100.00
2023-01-15T00:22:11.402Z,100.00
2023-01-15T00:24:38.084Z,100.00
2023-01-15T00:27:04.392Z,100.00
2023-01-15T00:29:30.859Z,100.00
2023-01-15T00:31:57.256Z,100.00
2023-01-15T00:34:23.648Z,100.00
2023-01-15T00:36:49.968Z,100.00
2023-01-15T00:39:16.415Z,100.00
2023-01-15T00:41:42.817Z,100.00
2023-01-15T00:44:09.247Z,100.00
2023-01-15T00:46:35.690Z,100.00
2023-01-15T00:49:01.956Z,100.00
2023-01-15T00:51:28.356Z,100.00
2023-01-15T00:53:54.942Z,100.00
2023-01-15T00:56:21.375Z,100.00
2023-01-15T00:58:47.736Z,100.00
2023-01-15T01:01:14.232Z,100.00
2023-01-15T01:03:40.482Z,100.00
2023-01-15T01:06:06.796Z,100.00
2023-01-15T01:08:33.203Z,100.00
2023-01-15T01:10:59.601Z,100.00
2023-01-15T01:13:25.964Z,100.00
2023-01-15T01:15:52.522Z,100.00
2023-01-15T01:18:18.808Z,100.00
2023-01-15T01:20:45.167Z,100.00
2023-01-15T01:23:11.518Z,100.00
2023-01-15T01:25:37.877Z,100.00
2023-01-15T01:28:04.189Z,100.00
2023-01-15T01:30:30.537Z,100.00
2023-01-15T01:32:56.934Z,100.00
2023-01-15T01:35:23.334Z,100.00
2023-01-15T01:37:49.771Z,100.00
2023-01-15T01:40:16.120Z,100.00
2023-01-15T01:42:42.515Z,100.00
2023-01-15T01:45:08.910Z,100.00
2023-01-15T01:47:35.281Z,100.00
2023-01-15T01:50:01.593Z,100.00
2023-01-15T01:52:27.952Z,100.00
2023-01-15T01:54:54.381Z,100.00
2023-01-15T01:57:20.795Z,100.00
2023-01-15T01:59:47.144Z,100.00
2023-01-15T02:02:13.557Z,100.00
2023-01-15T02:04:39.780Z,100.00
2023-01-15T02:07:06.185Z,100.00
2023-01-15T02:09:32.591Z,100.00
2023-01-15T02:11:59.006Z,100.00
2023-01-15T02:14:25.426Z,100.00
2023-01-15T02:16:51.771Z,100.00
2023-01-15T02:19:18.171Z,100.00
2023-01-15T02:21:44.536Z,100.00
2023-01-15T02:24:10.944Z,100.00
2023-01-15T02:26:37.528Z,100.00
2023-01-15T02:29:03.873Z,100.00
2023-01-15T02:31:30.266Z,100.00
2023-01-15T02:33:56.522Z,100.00
2023-01-15T02:36:22.929Z,100.00
2023-01-15T02:38:49.244Z,100.00
2023-01-15T02:41:15.630Z,100.00
2023-01-15T02:43:41.998Z,100.00
2023-01-15T02:46:08.341Z,100.00
2023-01-15T02:48:34.834Z,100.00
2023-01-15T02:51:01.227Z,100.00
2023-01-15T02:53:27.534Z,100.00
2023-01-15T02:55:53.913Z,100.00
2023-01-15T02:58:20.309Z,100.00
2023-01-15T03:00:46.717Z,100.00
2023-01-15T03:03:13.163Z,100.00
2023-01-15T03:05:39.474Z,100.00
2023-01-15T03:08:05.844Z,100.00
2023-01-15T03:10:32.236Z,100.00
2023-01-15T03:12:58.599Z,100.00
2023-01-15T03:15:24.946Z,100.00
2023-01-15T03:17:51.339Z,100.00
2023-01-15T03:20:17.749Z,100.00
2023-01-15T03:22:44.124Z,100.00
2023-01-15T03:25:10.424Z,100.00
2023-01-15T03:27:36.798Z,100.00
2023-01-15T03:30:03.242Z,100.00
2023-01-15T03:32:29.584Z,100.00
2023-01-15T03:34:55.951Z,100.00
2023-01-15T03:37:22.312Z,100.00
2023-01-15T03:39:48.702Z,100.00
2023-01-15T03:42:15.046Z,100.00
2023-01-15T03:44:41.456Z,100.00
2023-01-15T03:47:07.818Z,100.00
2023-01-15T03:49:34.229Z,100.00
2023-01-15T03:52:00.636Z,100.00
2023-01-15T03:54:27.406Z,100.00
2023-01-15T03:56:53.781Z,100.00
2023-01-15T03:59:20.128Z,100.00
2023-01-15T04:01:46.596Z,100.00
2023-01-15T04:04:12.918Z,100.00
2023-01-15T04:06:39.517Z,100.00
2023-01-15T04:09:05.836Z,100.00
2023-01-15T04:11:32.248Z,100.00
2023-01-15T04:13:58.678Z,100.00
2023-01-15T04:16:25.099Z,100.00
2023-01-15T04:18:51.449Z,100.00
2023-01-15T04:21:17.817Z,100.00
2023-01-15T04:23:44.229Z,100.00
2023-01-15T04:26:10.562Z,100.00
2023-01-15T04:28:36.886Z,100.00
2023-01-15T04:31:03.274Z,100.00
2023-01-15T04:33:29.659Z,100.00
2023-01-15T04:35:56.296Z,100.00
2023-01-15T04:38:22.640Z,100.00
2023-01-15T04:40:48.952Z,100.00
2023-01-15T04:43:15.266Z,100.00
2023-01-15T04:45:41.625Z,100.00
2023-01-15T04:48:08.030Z,100.00
2023-01-15T04:50:34.437Z,100.00
2023-01-15T04:53:00.753Z,100.00
2023-01-15T04:55:27.083Z,100.00
2023-01-15T04:57:53.504Z,100.00
2023-01-15T05:00:19.846Z,100.00
2023-01-15T05:02:46.291Z,100.00
2023-01-15T05:05:12.613Z,100.00
2023-01-15T05:07:39.013Z,100.00
2023-01-15T05:10:05.374Z,100.00
2023-01-15T05:12:31.729Z,100.00
2023-01-15T05:14:58.151Z,100.00
2023-01-15T05:17:24.412Z,100.00
2023-01-15T05:19:50.729Z,100.00
2023-01-15T05:22:17.148Z,100.00
2023-01-15T05:24:43.466Z,100.00
2023-01-15T05:27:09.779Z,100.00
2023-01-15T05:29:37.254Z,100.00
2023-01-15T05:32:03.649Z,100.00
2023-01-15T05:34:30.048Z,100.00
2023-01-15T05:36:56.452Z,100.00
2023-01-15T05:39:22.804Z,100.00
2023-01-15T05:41:49.238Z,100.00
2023-01-15T05:44:15.501Z,100.00
2023-01-15T05:46:41.881Z,100.00
2023-01-15T05:49:08.281Z,100.00
2023-01-15T05:51:34.679Z,100.00
2023-01-15T05:54:01.033Z,100.00
2023-01-15T05:56:27.389Z,100.00
2023-01-15T05:58:53.776Z,100.00
2023-01-15T06:01:20.235Z,100.00
2023-01-15T06:03:46.553Z,100.00
2023-01-15T06:06:12.854Z,100.00
2023-01-15T06:08:39.215Z,100.00
2023-01-15T06:11:05.575Z,100.00
2023-01-15T06:13:32.002Z,100.00
2023-01-15T06:15:58.390Z,100.00
2023-01-15T06:18:24.780Z,100.00
2023-01-15T06:20:51.059Z,100.00
2023-01-15T06:23:17.415Z,100.00
2023-01-15T06:25:43.780Z,100.00
2023-01-15T06:28:10.096Z,100.00
2023-01-15T06:30:38.578Z,100.00
2023-01-15T06:33:02.870Z,100.00
2023-01-15T06:35:29.184Z,100.00
2023-01-15T06:37:55.538Z,100.00
2023-01-15T06:40:21.947Z,100.00
2023-01-15T06:42:48.479Z,100.00
2023-01-15T06:45:15.169Z,100.00
2023-01-15T06:47:41.743Z,100.00
2023-01-15T06:50:08.150Z,100.00
2023-01-15T06:52:34.469Z,100.00
2023-01-15T06:55:00.838Z,100.00
2023-01-15T06:57:27.211Z,100.00
2023-01-15T06:59:53.561Z,100.00
2023-01-15T07:02:19.940Z,100.00
2023-01-15T07:04:46.415Z,100.00
2023-01-15T07:07:12.750Z,100.00
2023-01-15T07:09:39.083Z,100.00
2023-01-15T07:12:05.437Z,100.00
2023-01-15T07:14:31.802Z,100.00
2023-01-15T07:16:58.127Z,100.00
2023-01-15T07:19:24.546Z,100.00
2023-01-15T07:21:50.912Z,100.00
2023-01-15T07:24:17.653Z,100.00
2023-01-15T07:26:43.960Z,100.00
2023-01-15T07:29:10.261Z,100.00
2023-01-15T07:31:36.693Z,100.00
2023-01-15T07:34:02.940Z,100.00
2023-01-15T07:36:29.283Z,100.00
2023-01-15T07:38:55.715Z,100.00
2023-01-15T07:41:22.068Z,100.00
2023-01-15T07:43:48.477Z,100.00
2023-01-15T07:46:14.804Z,100.00
2023-01-15T07:48:41.231Z,100.00
2023-01-15T07:51:07.584Z,100.00
2023-01-15T07:53:33.949Z,100.00
2023-01-15T07:56:00.547Z,100.00
2023-01-15T07:58:26.918Z,100.00
2023-01-15T08:00:53.326Z,100.00
2023-01-15T08:03:19.741Z,100.00
2023-01-15T08:05:46.051Z,100.00
2023-01-15T08:08:12.413Z,100.00
2023-01-15T08:10:38.873Z,100.00
2023-01-15T08:13:05.185Z,100.00
2023-01-15T08:15:31.598Z,100.00
2023-01-15T08:17:57.956Z,100.00
2023-01-15T08:20:24.352Z,100.00
2023-01-15T08:22:50.801Z,100.00
2023-01-15T08:25:17.171Z,100.00
2023-01-15T08:27:43.554Z,100.00
2023-01-15T08:30:09.955Z,100.00
2023-01-15T08:32:36.380Z,100.00
2023-01-15T08:35:02.744Z,100.00
2023-01-15T08:37:29.310Z,100.00
2023-01-15T08:39:55.671Z,100.00
2023-01-15T08:42:21.984Z,100.00
2023-01-15T08:44:48.550Z,99.37
2023-01-15T08:47:14.864Z,90.67
2023-01-15T08:49:41.234Z,86.60
2023-01-15T08:52:07.614Z,85.26
2023-01-15T08:54:33.932Z,82.58
2023-01-15T08:57:00.290Z,84.66
2023-01-15T08:59:26.657Z,82.29
2023-01-15T09:01:53.048Z,79.69
2023-01-15T09:04:19.366Z,78.40
2023-01-15T09:06:45.649Z,78.13
2023-01-15T09:09:12.338Z,81.58
2023-01-15T09:11:38.667Z,81.44
2023-01-15T09:14:05.026Z,81.72
2023-01-15T09:16:31.418Z,79.54
2023-01-15T09:18:57.757Z,78.25
2023-01-15T09:21:24.110Z,79.42
2023-01-15T09:23:50.488Z,76.75
2023-01-15T09:26:16.871Z,74.72
2023-01-15T09:28:43.267Z,75.27
2023-01-15T09:31:09.701Z,76.18
2023-01-15T09:33:36.082Z,76.21
2023-01-15T09:36:02.489Z,74.49
2023-01-15T09:38:28.831Z,74.01
2023-01-15T09:40:55.132Z,73.08
2023-01-15T09:43:21.514Z,73.42
2023-01-15T09:45:47.903Z,72.47
2023-01-15T09:48:14.202Z,73.41
2023-01-15T09:50:40.634Z,73.64
2023-01-15T09:53:07.019Z,71.77
2023-01-15T09:55:33.385Z,75.09
2023-01-15T09:57:59.827Z,76.40
2023-01-15T10:00:26.225Z,73.11
2023-01-15T10:02:52.558Z,72.47
2023-01-15T10:05:18.976Z,70.69
2023-01-15T10:07:45.325Z,70.58
2023-01-15T10:10:11.632Z,82.29
2023-01-15T10:12:38.171Z,82.62
2023-01-15T10:15:04.805Z,74.21
2023-01-15T10:17:31.125Z,71.36
2023-01-15T10:19:57.474Z,69.72
2023-01-15T10:22:23.839Z,68.91
2023-01-15T10:24:50.262Z,67.50
2023-01-15T10:27:16.670Z,67.43
2023-01-15T10:29:43.030Z,67.70
2023-01-15T10:32:09.428Z,66.80
2023-01-15T10:34:35.855Z,65.67
2023-01-15T10:37:02.242Z,65.73
2023-01-15T10:39:28.579Z,66.17
2023-01-15T10:41:54.975Z,66.44
2023-01-15T10:44:21.336Z,66.82
2023-01-15T10:46:47.623Z,65.48
2023-01-15T10:49:14.037Z,64.52
2023-01-15T10:51:40.389Z,64.89
2023-01-15T10:54:06.748Z,65.25
2023-01-15T10:56:33.155Z,65.20
2023-01-15T11:01:25.775Z,63.06
2023-01-15T11:03:51.999Z,63.59
2023-01-15T11:06:18.470Z,62.19
2023-01-15T11:11:11.298Z,59.91
2023-01-15T11:13:37.647Z,58.63
2023-01-15T11:16:04.078Z,58.64
2023-01-15T11:18:30.462Z,59.18
2023-01-15T11:20:56.825Z,58.18
2023-01-15T11:23:23.161Z,58.21
2023-01-15T11:25:49.610Z,59.34
2023-01-15T11:28:15.969Z,58.53
2023-01-15T11:30:42.344Z,57.62
2023-01-15T11:33:08.755Z,56.11
2023-01-15T11:35:35.098Z,55.61
2023-01-15T11:38:01.432Z,55.31
2023-01-15T11:40:27.910Z,55.35
2023-01-15T11:42:54.336Z,55.05
2023-01-15T11:45:20.708Z,55.08
2023-01-15T11:47:47.137Z,55.08
2023-01-15T11:50:13.486Z,55.06
2023-01-15T11:52:39.900Z,54.75
2023-01-15T11:55:06.269Z,53.95
2023-01-15T11:57:32.588Z,53.49
2023-01-15T11:59:58.952Z,53.60
2023-01-15T12:02:25.560Z,54.22
2023-01-15T12:04:52.030Z,53.76
2023-01-15T12:07:18.238Z,53.27
2023-01-15T12:09:44.624Z,53.34
2023-01-15T12:12:10.980Z,53.62
2023-01-15T12:14:37.305Z,54.18
2023-01-15T12:17:03.709Z,54.43
2023-01-15T12:19:30.114Z,54.77
2023-01-15T12:21:56.456Z,62.20
2023-01-15T12:24:22.868Z,63.58
2023-01-15T12:26:49.216Z,62.70
2023-01-15T12:29:15.636Z,64.14
2023-01-15T12:31:42.156Z,62.13
2023-01-15T12:34:08.424Z,64.00
2023-01-15T12:36:34.822Z,62.81
2023-01-15T12:39:01.232Z,63.46
2023-01-15T12:41:27.582Z,62.36
2023-01-15T12:43:53.957Z,61.70
2023-01-15T12:46:20.325Z,60.62
2023-01-15T12:48:46.771Z,61.09
2023-01-15T12:51:13.098Z,61.11
2023-01-15T12:53:39.497Z,63.08
2023-01-15T12:56:06.111Z,62.83
2023-01-15T12:58:32.513Z,63.36
2023-01-15T13:00:58.946Z,64.26
2023-01-15T13:03:25.195Z,64.74
2023-01-15T13:05:51.610Z,64.29
2023-01-15T13:08:18.282Z,63.67
2023-01-15T13:10:44.691Z,63.36
2023-01-15T13:13:11.055Z,63.30
2023-01-15T13:15:37.714Z,62.64
2023-01-15T13:18:04.077Z,63.25
2023-01-15T13:20:30.487Z,62.96
2023-01-15T13:22:56.889Z,63.15
2023-01-15T13:25:26.165Z,62.52
2023-01-15T13:27:50.634Z,63.75
2023-01-15T13:30:17.061Z,61.16
2023-01-15T13:32:43.419Z,61.94
2023-01-15T13:35:11.980Z,62.51
2023-01-15T13:37:38.329Z,64.32
2023-01-15T13:40:04.664Z,65.05
2023-01-15T13:42:31.132Z,65.52
2023-01-15T13:44:57.537Z,64.45
2023-01-15T13:47:23.861Z,65.36
2023-01-15T13:49:50.323Z,64.85
2023-01-15T13:52:16.632Z,63.62
2023-01-15T13:54:43.095Z,63.63
2023-01-15T13:57:10.598Z,63.40
2023-01-15T13:59:36.911Z,62.36
2023-01-15T14:02:03.283Z,62.61
2023-01-15T14:04:29.710Z,62.47
2023-01-15T14:06:56.061Z,63.41
2023-01-15T14:09:22.463Z,63.64
2023-01-15T14:11:48.830Z,63.92
2023-01-15T14:14:15.145Z,64.12
2023-01-15T14:16:41.568Z,62.92
2023-01-15T14:19:08.204Z,61.01
2023-01-15T14:21:34.371Z,61.21
2023-01-15T14:24:00.669Z,62.32
2023-01-15T14:26:27.121Z,61.83
2023-01-15T14:28:53.365Z,61.30
2023-01-15T14:31:19.770Z,61.35
2023-01-15T14:33:46.093Z,61.75
2023-01-15T14:36:12.524Z,62.71
2023-01-15T14:38:38.935Z,62.37
2023-01-15T14:41:05.303Z,62.55
2023-01-15T14:43:31.740Z,62.49
2023-01-15T14:45:59.330Z,63.03
2023-01-15T14:48:25.693Z,62.68
2023-01-15T14:50:52.176Z,63.12
2023-01-15T14:53:18.544Z,63.43
2023-01-15T14:55:44.984Z,63.96
2023-01-15T14:58:11.441Z,63.46
2023-01-15T15:00:38.910Z,63.02
2023-01-15T15:03:05.341Z,63.14
2023-01-15T15:05:33.877Z,62.88
2023-01-15T15:08:00.656Z,62.94
2023-01-15T15:10:26.989Z,63.26
2023-01-15T15:12:53.819Z,63.54
2023-01-15T15:15:20.143Z,64.06
2023-01-15T15:17:46.560Z,64.47
2023-01-15T15:20:13.334Z,64.59
2023-01-15T15:22:39.656Z,64.70
2023-01-15T15:25:06.029Z,64.80
2023-01-15T15:27:32.558Z,65.02
2023-01-15T15:29:58.908Z,65.03
2023-01-15T15:32:25.469Z,65.28
2023-01-15T15:34:51.805Z,65.50
2023-01-15T15:37:18.268Z,65.56
2023-01-15T15:39:45.762Z,65.76
2023-01-15T15:42:12.174Z,66.36
2023-01-15T15:44:38.705Z,67.12
2023-01-15T15:47:05.079Z,67.33
2023-01-15T15:49:31.436Z,67.19
2023-01-15T15:51:57.810Z,66.85
2023-01-15T15:54:24.272Z,67.38
2023-01-15T15:56:50.558Z,67.81
2023-01-15T15:59:16.975Z,67.68
2023-01-15T16:01:43.558Z,67.76
2023-01-15T16:04:09.743Z,67.89
2023-01-15T16:06:38.273Z,67.99
2023-01-15T16:09:04.760Z,68.29
2023-01-15T16:11:31.022Z,68.48
2023-01-15T16:13:57.383Z,68.66
2023-01-15T16:16:23.694Z,69.13
2023-01-15T16:18:50.051Z,73.63
2023-01-15T16:21:16.443Z,77.81
2023-01-15T16:23:43.052Z,79.90
2023-01-15T16:26:09.444Z,81.28
2023-01-15T16:28:35.839Z,82.30
2023-01-15T16:31:02.232Z,83.25
2023-01-15T16:33:28.612Z,84.01
2023-01-15T16:35:54.930Z,84.56
2023-01-15T16:38:21.269Z,84.99
2023-01-15T16:40:47.930Z,85.41
2023-01-15T16:43:14.253Z,85.83
2023-01-15T16:45:40.830Z,86.23
2023-01-15T16:48:07.226Z,86.74
2023-01-15T16:50:33.610Z,87.33
2023-01-15T16:52:59.974Z,87.94
2023-01-15T16:55:26.393Z,88.56
2023-01-15T16:57:52.764Z,89.09
2023-01-15T17:00:19.115Z,89.35
2023-01-15T17:02:45.488Z,90.51
2023-01-15T17:05:11.965Z,91.48
2023-01-15T17:07:38.215Z,91.23
2023-01-15T17:10:04.636Z,90.76
2023-01-15T17:12:30.960Z,90.25
2023-01-15T17:14:57.357Z,89.92
2023-01-15T17:17:23.724Z,89.68
2023-01-15T17:19:50.107Z,89.33
2023-01-15T17:22:16.560Z,89.20
2023-01-15T17:24:42.869Z,89.13
2023-01-15T17:27:09.361Z,91.51
2023-01-15T17:29:35.764Z,91.89
2023-01-15T17:32:04.372Z,91.52
2023-01-15T17:34:28.560Z,90.98
2023-01-15T17:36:54.960Z,90.49
2023-01-15T17:39:21.365Z,90.15
2023-01-15T17:41:47.697Z,89.80
2023-01-15T17:44:14.291Z,90.74
2023-01-15T17:46:40.626Z,92.32
2023-01-15T17:49:06.987Z,93.68
2023-01-15T17:51:33.419Z,94.61
2023-01-15T17:53:59.822Z,94.13
2023-01-15T17:56:26.172Z,93.44
2023-01-15T17:58:52.565Z,92.65
2023-01-15T18:01:19.099Z,92.11
2023-01-15T18:03:45.299Z,91.49
2023-01-15T18:06:11.753Z,91.06
2023-01-15T18:08:38.145Z,90.69
2023-01-15T18:11:04.801Z,90.37
2023-01-15T18:13:31.242Z,90.26
2023-01-15T18:15:57.697Z,89.93
2023-01-15T18:18:24.161Z,89.77
2023-01-15T18:20:50.566Z,89.53
2023-01-15T18:23:16.911Z,89.42
2023-01-15T18:25:43.359Z,89.38
2023-01-15T18:28:09.784Z,89.07
2023-01-15T18:30:36.212Z,90.60
2023-01-15T18:33:02.881Z,92.25
2023-01-15T18:35:29.006Z,93.87
2023-01-15T18:37:55.411Z,94.71
2023-01-15T18:40:21.794Z,94.11
2023-01-15T18:42:48.192Z,93.34
2023-01-15T18:45:14.592Z,92.64
2023-01-15T18:47:40.929Z,91.98
2023-01-15T18:50:07.302Z,91.46
2023-01-15T18:52:33.777Z,91.05
2023-01-15T18:55:00.175Z,90.71
2023-01-15T18:57:26.502Z,90.35
2023-01-15T18:59:52.950Z,90.05
2023-01-15T19:02:19.383Z,89.86
2023-01-15T19:04:45.716Z,89.71
2023-01-15T19:07:12.120Z,89.59
2023-01-15T19:09:38.485Z,89.45
2023-01-15T19:12:04.851Z,89.33
2023-01-15T19:14:31.197Z,89.26
2023-01-15T19:16:57.575Z,90.88
2023-01-15T19:19:24.377Z,92.67
2023-01-15T19:21:50.742Z,94.32
2023-01-15T19:24:17.129Z,94.79
2023-01-15T19:26:43.561Z,94.07
2023-01-15T19:29:09.967Z,93.28
2023-01-15T19:31:37.066Z,92.47
2023-01-15T19:34:31.760Z,91.87
2023-01-15T19:36:29.142Z,91.36
2023-01-15T19:38:55.486Z,90.87
2023-01-15T19:41:22.321Z,90.62
2023-01-15T19:43:48.789Z,90.26
2023-01-15T19:46:15.264Z,89.98
2023-01-15T19:48:41.539Z,89.82
2023-01-15T19:51:07.934Z,89.65
2023-01-15T19:53:34.460Z,89.53
2023-01-15T19:56:00.822Z,89.26
2023-01-15T19:58:27.185Z,89.20
2023-01-15T20:00:54.092Z,89.47
2023-01-15T20:03:20.445Z,91.31
2023-01-15T20:05:46.810Z,93.14
2023-01-15T20:08:13.239Z,94.84
2023-01-15T20:10:39.615Z,95.11
2023-01-15T20:13:06.022Z,94.23
2023-01-15T20:15:32.335Z,93.52
2023-01-15T20:17:59.957Z,92.69
2023-01-15T20:20:26.305Z,91.98
2023-01-15T20:22:52.701Z,91.57
2023-01-15T20:25:19.097Z,91.24
2023-01-15T20:27:45.593Z,90.77
2023-01-15T20:30:12.005Z,90.39
2023-01-15T20:32:38.682Z,90.19
2023-01-15T20:35:05.049Z,90.07
2023-01-15T20:37:31.439Z,90.08
2023-01-15T20:39:57.831Z,89.83
2023-01-15T20:42:24.184Z,89.75
2023-01-15T20:44:50.587Z,89.73
2023-01-15T20:47:16.998Z,89.88
2023-01-15T20:49:43.451Z,90.73
2023-01-15T20:52:09.845Z,92.43
2023-01-15T20:54:36.136Z,93.95
2023-01-15T20:57:02.603Z,93.82
2023-01-15T20:59:29.004Z,92.95
2023-01-15T21:01:55.453Z,92.16
2023-01-15T21:04:21.872Z,91.40
2023-01-15T21:06:48.200Z,90.72
2023-01-15T21:09:14.644Z,90.26
2023-01-15T21:11:41.008Z,89.88
2023-01-15T21:14:07.407Z,89.69
2023-01-15T21:16:34.147Z,89.42
2023-01-15T21:19:00.548Z,89.18
2023-01-15T21:21:26.877Z,89.05
2023-01-15T21:23:53.379Z,88.80
2023-01-15T21:26:19.826Z,88.50
2023-01-15T21:28:46.224Z,88.38
2023-01-15T21:31:12.613Z,88.16
2023-01-15T21:33:39.002Z,89.16
2023-01-15T21:36:05.358Z,91.19
2023-01-15T21:38:31.724Z,93.01
2023-01-15T21:40:58.043Z,94.43
2023-01-15T21:43:24.417Z,93.74
2023-01-15T21:45:50.948Z,92.78
2023-01-15T21:48:17.298Z,91.88
2023-01-15T21:50:43.675Z,91.14
2023-01-15T21:53:09.989Z,90.48
2023-01-15T21:55:36.394Z,90.00
2023-01-15T21:58:02.761Z,89.48
2023-01-15T22:00:30.331Z,89.09
2023-01-15T22:02:56.731Z,88.88
2023-01-15T22:05:23.007Z,88.56
2023-01-15T22:07:49.421Z,88.27
2023-01-15T22:10:15.771Z,88.10
2023-01-15T22:12:42.108Z,87.85
2023-01-15T22:15:08.528Z,87.77
2023-01-15T22:17:34.971Z,87.52
2023-01-15T22:20:01.452Z,88.77
2023-01-15T22:22:29.975Z,90.84
2023-01-15T22:24:56.338Z,92.74
2023-01-15T22:27:22.751Z,93.67
2023-01-15T22:29:49.157Z,93.06
2023-01-15T22:32:15.504Z,92.07
2023-01-15T22:34:41.941Z,91.13
2023-01-15T22:37:08.314Z,90.41
2023-01-15T22:39:34.678Z,89.76
2023-01-15T22:42:01.043Z,89.28
2023-01-15T22:44:27.446Z,88.71
2023-01-15T22:46:53.773Z,88.33
2023-01-15T22:49:20.500Z,88.03
2023-01-15T22:51:46.859Z,87.81
2023-01-15T22:54:13.269Z,87.56
2023-01-15T22:56:39.688Z,87.31
2023-01-15T22:59:06.048Z,87.15
2023-01-15T23:01:32.583Z,87.08
2023-01-15T23:03:58.837Z,86.99
2023-01-15T23:06:25.188Z,88.62
2023-01-15T23:08:51.604Z,90.57
2023-01-15T23:11:18.021Z,92.32
2023-01-15T23:13:44.331Z,92.98
2023-01-15T23:16:10.732Z,92.24
2023-01-15T23:18:37.019Z,91.24
2023-01-15T23:21:03.471Z,90.38
2023-01-15T23:23:29.745Z,89.73
2023-01-15T23:25:56.160Z,89.12
2023-01-15T23:28:22.578Z,88.66
2023-01-15T23:30:49.055Z,88.26
2023-01-15T23:33:15.460Z,87.96
2023-01-15T23:35:42.190Z,87.61
2023-01-15T23:38:08.508Z,87.35
2023-01-15T23:40:34.886Z,87.02
2023-01-15T23:43:01.246Z,86.83
2023-01-15T23:45:27.567Z,86.71
2023-01-15T23:47:53.932Z,86.62
2023-01-15T23:50:20.381Z,86.65
2023-01-15T23:52:46.785Z,88.55
2023-01-15T23:55:13.351Z,90.50
2023-01-15T23:57:39.775Z,92.22
